Weather observations for the past three days for
Dunkirk, Chautauqua County / Dunkirk Airport
Imperial (Metric)
Date Time (edt) Wind (mph) Vis. (mi.) Weather Sky Cond. Temperature (ºF) Relative Humidity Wind Chill (°F) Heat Index (°F) Pressure Precipitation (in)
Air Dwpt 6 hour altimeter (in) sea level (mb) 1 hr 3 hr 6 hr
Max. Min.
04 02:53 S 10 10.00 Partly Cloudy SCT110 48.9 33.1 55% 45 29.8 1009.1
04 01:53 SW 12 10.00 A Few Clouds FEW120 51.1 33.1 55.9 48.9 50% 29.81 1009.5
04 00:53 SW 10 10.00 Fair CLR 52 32 47% 29.83 1010.2
03 23:53 SW 12 10.00 Fair CLR 52 33.1 49% 29.83 1010.3
03 22:53 S 8 10.00 Fair CLR 50 33.1 52% 47 29.83 1010.5
03 21:53 SW 12 G 23 10.00 A Few Clouds FEW095 54 32 43% 29.84 1010.5
03 20:53 SW 16 G 26 10.00 Overcast SCT070 OVC095 55.9 30.9 39% 29.84 1010.5
03 19:53 SW 13 G 23 10.00 Overcast OVC100 55 33.1 57 54 44% 29.83 1010.4
03 18:53 SW 18 G 30 10.00 Overcast OVC095 54 32 43% 29.84 1010.8
03 17:53 W 18 G 38 10.00 Overcast OVC085 55.9 32 40% 29.84 1010.9
03 16:53 SW 21 G 37 10.00 Partly Cloudy and Breezy SCT095 55.9 33.1 42% 29.84 1010.8
03 15:53 SW 22 G 39 10.00 Light Rain and Breezy FEW120 55 33.1 44% 29.86 1011.5
03 14:53 SW 16 G 37 10.00 Mostly Cloudy BKN100 55 33.1 44% 29.88 1012.2
03 13:53 W 16 G 35 10.00 Mostly Cloudy BKN100 BKN120 55 28 55 42.1 36% 29.9 1012.7
03 12:53 W 15 G 33 10.00 Mostly Cloudy BKN110 54 26.1 34% 29.92 1013.5
03 11:53 SW 20 G 30 10.00 Mostly Cloudy BKN085 50 28 43% 44 29.95 1014.5
03 10:53 W 17 G 31 10.00 Mostly Cloudy BKN100 48 36 63% 42 29.96 1015.0
03 09:53 W 17 G 30 10.00 A Few Clouds FEW075 48 34 58% 42 29.97 1015.1
03 08:53 SW 15 G 31 10.00 Fair CLR 46 34 63% 40 29.96 1015.0
03 07:53 S 8 10.00 Fair CLR 42.1 32 42.1 34 68% 38 29.96 1014.9
03 06:53 SW 7 10.00 Fair CLR 37 30 76% 32 29.96 1014.9
03 05:53 SW 8 10.00 Mostly Cloudy BKN075 37 30.9 79% 32 29.95 1014.8
03 04:53 SW 6 10.00 Mostly Cloudy BKN075 35.1 30.9 85% 31 29.96 1015.1
03 03:53 SW 7 10.00 Fair CLR 36 32 86% 31 29.97 1015.3
03 02:53 W 8 10.00 Fair CLR 39.9 33.1 77% 35 29.97 1015.2
03 01:53 W 7 10.00 Fair CLR 39.9 32 42.1 37.9 73% 36 29.97 1015.4
03 00:53 SW 7 10.00 Fair CLR 39 34 82% 35 29.98 1015.8
02 23:53 SW 6 10.00 Mostly Cloudy BKN080 39 33.1 79% 35 29.99 1016.0
02 22:53 SW 6 10.00 Overcast OVC080 41 33.1 73% 38 30 1016.3
02 21:53 SW 9 10.00 Overcast FEW060 OVC080 41 32 70% 36 30 1016.5
02 20:53 SW 10 10.00 Overcast FEW047 FEW060 OVC080 41 32 70% 35 30 1016.5
02 19:53 W 9 10.00 Overcast OVC047 42.1 32 46 41 68% 37 30 1016.3
02 18:53 SW 12 10.00 Overcast OVC055 42.1 30.9 65% 36 30 1016.3
02 17:53 W 16 G 23 10.00 Overcast OVC080 43 30 60% 36 29.99 1016.2
02 16:53 W 14 G 23 10.00 Partly Cloudy SCT075 44.1 28 53% 38 29.99 1016.0
02 15:53 W 13 G 24 10.00 Fair CLR 45 27 49% 39 29.99 1016.1
02 14:53 W 9 G 20 10.00 Fair CLR 45 25 46% 41 30 1016.5
02 13:53 W 10 G 20 10.00 Partly Cloudy SCT080 44.1 25 45 37.9 47% 39 30 1016.5
02 12:53 W 12 10.00 A Few Clouds FEW090 43 26.1 51% 37 30.01 1016.6
02 11:53 W 9 G 18 10.00 Fair CLR 41 28.9 62% 36 30.02 1017.1
02 10:53 NW 9 10.00 Overcast OVC100 41 28 60% 36 30.01 1016.7
02 09:53 W 10 10.00 Overcast OVC100 41 28 60% 35 30.01 1016.9
02 08:53 NW 8 10.00 Overcast SCT060 OVC100 39 27 62% 34 30.02 1017.1
02 07:53 W 5 10.00 Overcast SCT050 OVC100 37.9 27 39 34 65% 35 30.02 1017.1
02 06:53 W 5 10.00 Overcast OVC090 37 28 70% 34 30.01 1016.7
02 05:53 NW 5 10.00 Overcast OVC090 37 28.9 73% 34 29.99 1016.1
02 04:53 W 5 10.00 Overcast OVC070 37 28.9 73% 34 29.99 1016.0
02 03:53 Calm 10.00 Mostly Cloudy BKN095 37.9 28.9 70% 29.97 1015.3
02 02:53 SW 6 10.00 Overcast OVC095 39 28.9 67% 35 29.97 1015.4
02 01:53 NW 8 10.00 A Few Clouds FEW095 39 28.9 42.1 37.9 67% 34 29.99 1015.9
02 00:53 NW 9 10.00 Mostly Cloudy BKN085 39.9 28.9 65% 34 29.98 1015.7
01 23:53 W 5 10.00 Fair CLR 37.9 34 86% 35 29.96 1015.2
01 22:53 W 5 10.00 Partly Cloudy SCT085 39.9 35.1 83% 37 29.96 1015.1
01 21:53 SW 7 10.00 Overcast FEW075 OVC095 39.9 35.1 83% 36 29.96 1014.9
01 20:53 SW 6 10.00 Overcast FEW055 BKN075 OVC090 41 36 82% 38 29.94 1014.3
01 19:53 W 8 10.00 Overcast OVC070 42.1 37 44.1 39 82% 38 29.92 1013.8
01 18:53 SW 5 10.00 Overcast OVC080 44.1 37 76% 42 29.9 1013.0
01 17:53 S 6 10.00 Overcast OVC070 43 37.9 82% 40 29.89 1012.8
01 16:53 Calm 10.00 Light Rain BKN043 OVC060 42.1 37 82% 29.89 1012.9
01 15:53 Vrbl 3 10.00 Overcast OVC017 41 35.1 79% 29.9 1013.1
01 14:53 Vrbl 6 10.00 Overcast OVC013 41 36 82% 38 29.91 1013.2
01 13:53 N 5 10.00 Light Rain BKN010 OVC022 39 35.1 43 39 86% 36 29.92 1013.7 0.02 0.08
01 12:53 N 7 9.00 Light Rain OVC012 39 36 89% 35 29.91 1013.5 0.02
01 11:53 N 5 10.00 Overcast OVC014 39 35.1 86% 36 29.92 1013.8 0.03
01 10:53 NW 5 10.00 Light Rain OVC019 39.9 35.1 83% 37 29.93 1014.1 0.01 0.01
01 09:53 W 5 10.00 Overcast OVC055 43 34 71% 41 29.93 1013.8
01 08:53 SW 3 10.00 Overcast OVC070 42.1 35.1 76% 29.92 1013.7
01 07:53 SW 7 10.00 Overcast OVC070 39.9 34 39.9 33.1 79% 36 29.93 1014.1
01 06:53 SW 3 10.00 Mostly Cloudy BKN085 36 32 86% 29.93 1014.1
01 05:53 SW 5 10.00 Mostly Cloudy BKN095 BKN120 34 33.1 97% 30 29.92 1013.8
01 04:53 Calm 10.00 A Few Clouds FEW100 34 30.9 89% 29.93 1014.1
01 03:53 S 3 10.00 Fair CLR 35.1 32 89% 29.93 1014.0
Date Time (edt) Wind (mph) Vis. (mi.) Weather Sky Cond. Air Dwpt Max. Min. Relative Humidity Wind Chill (°F) Heat Index (°F) altimeter (in) sea level (mb) 1 hr 3 hr 6 hr
6 hour
Temperature (ºF) Pressure Precipitation (in)